createdAt,value
2023-03-18T00:02:33.500Z,5.67
2023-03-18T00:06:19.008Z,5.70
2023-03-18T00:10:02.380Z,6.27
2023-03-18T00:13:46.610Z,5.80
2023-03-18T00:17:29.362Z,6.30
2023-03-18T00:21:12.227Z,6.37
2023-03-18T00:24:55.069Z,6.17
2023-03-18T00:28:38.428Z,6.10
2023-03-18T00:32:22.638Z,6.07
2023-03-18T00:36:06.502Z,6.33
2023-03-18T00:39:49.323Z,6.13
2023-03-18T00:43:33.992Z,6.03
2023-03-18T00:47:16.678Z,5.73
2023-03-18T00:51:00.679Z,6.40
2023-03-18T00:54:43.391Z,5.50
2023-03-18T00:58:26.067Z,6.27
2023-03-18T01:02:08.932Z,5.87
2023-03-18T01:05:51.652Z,6.03
2023-03-18T01:09:35.816Z,5.90
2023-03-18T01:13:18.469Z,5.50
2023-03-18T01:17:02.226Z,5.80
2023-03-18T01:20:45.546Z,5.60
2023-03-18T01:24:28.674Z,5.27
2023-03-18T01:28:13.228Z,5.27
2023-03-18T01:31:57.379Z,5.43
2023-03-18T01:35:41.189Z,5.13
2023-03-18T01:39:24.566Z,5.53
2023-03-18T01:43:18.775Z,5.20
2023-03-18T01:47:02.096Z,5.43
2023-03-18T01:50:45.836Z,5.50
2023-03-18T01:54:30.435Z,5.20
2023-03-18T01:58:18.556Z,4.90
2023-03-18T02:02:06.583Z,4.90
2023-03-18T02:05:51.029Z,4.63
2023-03-18T02:09:33.706Z,4.90
2023-03-18T02:13:18.461Z,5.10
2023-03-18T02:17:04.645Z,4.80
2023-03-18T02:21:00.459Z,5.00
2023-03-18T02:24:58.358Z,4.40
2023-03-18T02:28:43.294Z,3.97
2023-03-18T02:32:28.051Z,4.50
2023-03-18T02:36:15.240Z,4.23
2023-03-18T02:40:13.119Z,4.20
2023-03-18T02:43:57.337Z,3.80
2023-03-18T02:47:42.148Z,3.50
2023-03-18T02:51:25.199Z,3.80
2023-03-18T02:55:08.980Z,3.80
2023-03-18T02:58:51.865Z,3.10
2023-03-18T03:02:37.053Z,3.30
2023-03-18T03:06:20.138Z,3.37
2023-03-18T03:10:03.054Z,3.17
2023-03-18T03:13:46.186Z,3.27
2023-03-18T03:17:29.023Z,3.40
2023-03-18T03:21:13.946Z,3.20
2023-03-18T03:24:56.642Z,3.00
2023-03-18T03:28:39.376Z,2.87
2023-03-18T03:32:22.169Z,3.00
2023-03-18T03:36:05.296Z,2.73
2023-03-18T03:39:49.378Z,3.43
2023-03-18T03:43:32.540Z,3.23
2023-03-18T03:47:15.417Z,3.40
2023-03-18T03:50:58.041Z,3.33
2023-03-18T03:54:41.530Z,3.20
2023-03-18T03:58:25.675Z,3.40
2023-03-18T04:02:08.859Z,3.37
2023-03-18T04:05:51.581Z,3.30
2023-03-18T04:09:34.843Z,3.10
2023-03-18T04:13:17.599Z,2.90
2023-03-18T04:17:01.610Z,3.10
2023-03-18T04:20:46.245Z,2.53
2023-03-18T04:24:29.082Z,3.00
2023-03-18T04:28:14.909Z,2.90
2023-03-18T04:31:57.650Z,2.80
2023-03-18T04:35:42.841Z,2.67
2023-03-18T04:39:25.579Z,2.80
2023-03-18T04:43:10.001Z,2.90
2023-03-18T04:46:53.588Z,2.67
2023-03-18T04:50:36.311Z,3.10
2023-03-18T04:54:20.359Z,2.50
2023-03-18T04:58:03.249Z,2.47
2023-03-18T05:01:45.941Z,2.57
2023-03-18T05:05:28.668Z,2.90
2023-03-18T05:09:12.742Z,2.43
2023-03-18T05:12:57.158Z,2.50
2023-03-18T05:16:39.816Z,2.70
2023-03-18T05:20:22.783Z,2.20
2023-03-18T05:24:05.916Z,2.40
2023-03-18T05:27:49.544Z,2.60
2023-03-18T05:31:33.613Z,2.40
2023-03-18T05:35:16.352Z,2.50
2023-03-18T05:38:59.056Z,2.70
2023-03-18T05:42:55.445Z,2.67
2023-03-18T05:46:40.086Z,2.60
2023-03-18T05:50:30.020Z,2.37
2023-03-18T05:54:12.791Z,2.40
2023-03-18T05:57:55.482Z,2.67
2023-03-18T06:01:39.891Z,2.47
2023-03-18T06:05:22.970Z,2.30
2023-03-18T06:09:06.938Z,2.10
2023-03-18T06:12:49.723Z,2.27
2023-03-18T06:16:32.837Z,2.10
2023-03-18T06:20:20.568Z,2.50
2023-03-18T06:24:03.345Z,2.13
2023-03-18T06:27:51.839Z,2.10
2023-03-18T06:31:38.295Z,1.90
2023-03-18T06:35:22.390Z,1.90
2023-03-18T06:39:05.164Z,1.90
2023-03-18T06:42:47.847Z,3.10
2023-03-18T06:46:30.650Z,2.37
2023-03-18T06:50:13.582Z,2.10
2023-03-18T06:53:57.804Z,2.30
2023-03-18T06:57:40.448Z,2.87
2023-03-18T07:01:25.945Z,2.47
2023-03-18T07:05:09.629Z,2.60
2023-03-18T07:08:52.896Z,2.63
2023-03-18T07:12:37.132Z,2.90
2023-03-18T07:16:20.021Z,2.73
2023-03-18T07:20:05.448Z,2.60
2023-03-18T07:23:48.143Z,2.50
2023-03-18T07:27:31.653Z,2.70
2023-03-18T07:31:16.799Z,2.90
2023-03-18T07:34:59.712Z,2.60
2023-03-18T07:38:42.401Z,2.50
2023-03-18T07:42:25.061Z,2.47
2023-03-18T07:46:07.836Z,2.97
2023-03-18T07:49:52.792Z,2.17
2023-03-18T07:53:35.802Z,2.20
2023-03-18T07:57:18.986Z,2.10
2023-03-18T08:01:01.965Z,2.30
2023-03-18T08:04:46.811Z,2.20
2023-03-18T08:08:31.029Z,2.27
2023-03-18T08:12:14.154Z,2.33
2023-03-18T08:15:57.390Z,2.23
2023-03-18T08:19:40.178Z,2.30
2023-03-18T08:23:23.589Z,2.53
2023-03-18T08:27:09.120Z,2.10
2023-03-18T08:30:55.788Z,2.30
2023-03-18T08:34:38.950Z,2.43
2023-03-18T08:38:21.658Z,2.17
2023-03-18T08:42:04.572Z,1.87
2023-03-18T08:45:52.694Z,1.97
2023-03-18T08:49:35.731Z,2.20
2023-03-18T08:53:19.521Z,2.13
2023-03-18T08:57:02.670Z,2.00
2023-03-18T09:00:45.731Z,2.40
2023-03-18T09:04:30.506Z,1.90
2023-03-18T09:08:13.544Z,1.80
2023-03-18T09:11:56.446Z,1.97
2023-03-18T09:15:39.132Z,1.90
2023-03-18T09:19:22.030Z,2.00
2023-03-18T09:23:06.263Z,2.00
2023-03-18T09:26:49.167Z,1.73
2023-03-18T09:30:32.484Z,1.60
2023-03-18T09:34:15.915Z,1.80
2023-03-18T09:37:58.605Z,3.23
2023-03-18T09:41:49.794Z,2.10
2023-03-18T09:45:36.084Z,2.30
2023-03-18T09:49:40.081Z,1.80
2023-03-18T09:53:26.584Z,1.87
2023-03-18T09:57:15.850Z,5.83
2023-03-18T10:01:01.506Z,2.50
2023-03-18T10:04:50.218Z,2.43
2023-03-18T10:08:43.982Z,2.13
2023-03-18T10:12:33.289Z,2.27
2023-03-18T10:16:21.737Z,2.10
2023-03-18T10:20:14.932Z,2.20
2023-03-18T10:24:03.573Z,2.30
2023-03-18T10:27:52.960Z,2.30
2023-03-18T10:31:43.114Z,2.10
2023-03-18T10:35:28.195Z,1.63
2023-03-18T10:39:15.316Z,1.80
2023-03-18T10:42:59.736Z,1.80
2023-03-18T10:46:43.903Z,2.00
2023-03-18T10:50:33.458Z,3.30
2023-03-18T10:54:22.021Z,2.60
2023-03-18T10:58:15.820Z,2.03
2023-03-18T11:02:02.716Z,1.83
2023-03-18T11:05:45.712Z,1.87
2023-03-18T11:09:33.060Z,2.13
2023-03-18T11:13:18.644Z,2.10
2023-03-18T11:17:02.781Z,2.53
2023-03-18T11:20:48.035Z,2.53
2023-03-18T11:24:38.857Z,2.43
2023-03-18T11:28:27.092Z,2.20
2023-03-18T11:32:25.226Z,2.60
2023-03-18T11:36:09.979Z,3.30
2023-03-18T11:39:58.691Z,3.30
2023-03-18T11:43:56.921Z,2.40
2023-03-18T11:47:40.298Z,2.20
2023-03-18T11:51:40.872Z,3.23
2023-03-18T11:55:31.895Z,2.50
2023-03-18T11:59:23.836Z,3.10
2023-03-18T12:03:33.007Z,2.70
2023-03-18T12:07:30.548Z,2.67
2023-03-18T12:11:16.312Z,3.17
2023-03-18T12:15:04.141Z,3.17
2023-03-18T12:19:13.652Z,2.90
2023-03-18T12:23:04.070Z,2.10
2023-03-18T12:26:53.134Z,3.03
2023-03-18T12:31:06.339Z,2.30
2023-03-18T12:34:57.836Z,2.57
2023-03-18T12:38:58.766Z,2.90
2023-03-18T12:43:00.341Z,2.37
2023-03-18T12:46:46.947Z,2.37
2023-03-18T12:50:36.654Z,2.80
2023-03-18T12:54:23.581Z,3.07
2023-03-18T12:58:08.655Z,2.10
2023-03-18T13:02:05.152Z,2.50
2023-03-18T13:05:50.818Z,3.10
2023-03-18T13:09:37.168Z,2.47
2023-03-18T13:13:20.114Z,2.63
2023-03-18T13:17:04.608Z,2.50
2023-03-18T13:20:48.262Z,2.65
2023-03-18T13:24:56.645Z,3.08
2023-03-18T13:28:48.832Z,2.70
2023-03-18T13:32:58.865Z,2.63
2023-03-18T13:36:58.626Z,2.65
2023-03-18T13:40:52.341Z,4.22
2023-03-18T13:44:39.569Z,2.92
2023-03-18T13:48:28.844Z,2.58
2023-03-18T13:52:24.336Z,2.15
2023-03-18T13:56:08.111Z,2.85
2023-03-18T13:59:51.128Z,2.65
2023-03-18T14:03:54.560Z,2.28
2023-03-18T14:07:47.778Z,3.10
2023-03-18T14:11:50.034Z,2.80
2023-03-18T14:15:42.544Z,2.45
2023-03-18T14:19:32.319Z,2.47
2023-03-18T14:23:39.172Z,2.92
2023-03-18T14:27:22.701Z,3.10
2023-03-18T14:31:33.070Z,2.70
2023-03-18T14:35:28.677Z,2.95
2023-03-18T14:39:15.264Z,2.78
2023-03-18T14:42:59.904Z,3.05
2023-03-18T14:46:44.822Z,2.70
2023-03-18T14:50:40.377Z,2.58
2023-03-18T14:54:25.445Z,3.42
2023-03-18T14:58:16.738Z,3.00
2023-03-18T15:01:59.678Z,2.63
2023-03-18T15:05:46.552Z,2.95
2023-03-18T15:09:33.599Z,3.10
2023-03-18T15:13:18.665Z,3.10
2023-03-18T15:17:03.156Z,2.75
2023-03-18T15:20:52.991Z,2.97
2023-03-18T15:24:38.718Z,2.40
2023-03-18T15:28:28.315Z,2.65
2023-03-18T15:32:18.252Z,2.85
2023-03-18T15:36:07.576Z,2.45
2023-03-18T15:39:56.853Z,2.60
2023-03-18T15:43:41.384Z,2.75
2023-03-18T15:47:30.221Z,3.60
2023-03-18T15:51:31.993Z,3.35
2023-03-18T15:55:29.170Z,3.30
2023-03-18T15:59:15.957Z,3.30
2023-03-18T16:02:59.586Z,4.00
2023-03-18T16:06:43.745Z,2.97
2023-03-18T16:10:26.646Z,3.35
2023-03-18T16:14:11.078Z,3.88
2023-03-18T16:17:55.043Z,4.13
2023-03-18T16:21:37.727Z,3.70
2023-03-18T16:25:22.342Z,3.72
2023-03-18T16:29:15.585Z,4.10
2023-03-18T16:32:59.713Z,3.58
2023-03-18T16:36:42.486Z,3.58
2023-03-18T16:40:27.934Z,4.27
2023-03-18T16:44:13.381Z,4.20
2023-03-18T16:47:58.047Z,4.50
2023-03-18T16:51:41.239Z,3.83
2023-03-18T16:55:26.011Z,4.10
2023-03-18T16:59:12.735Z,3.33
2023-03-18T17:02:55.502Z,4.57
2023-03-18T17:06:38.187Z,4.40
2023-03-18T17:10:22.895Z,4.63
2023-03-18T17:14:07.291Z,4.40
2023-03-18T17:17:52.995Z,4.07
2023-03-18T17:21:35.827Z,3.90
2023-03-18T17:25:18.516Z,4.00
2023-03-18T17:29:01.302Z,4.30
2023-03-18T17:32:46.213Z,4.70
2023-03-18T17:36:28.893Z,4.33
2023-03-18T17:40:13.224Z,5.20
2023-03-18T17:43:55.912Z,5.13
2023-03-18T17:47:38.660Z,5.10
2023-03-18T17:51:24.681Z,5.50
2023-03-18T17:55:15.057Z,4.30
2023-03-18T17:58:57.729Z,4.43
2023-03-18T18:02:40.562Z,4.40
2023-03-18T18:06:27.144Z,3.93
2023-03-18T18:10:11.761Z,4.60
2023-03-18T18:13:57.922Z,5.30
2023-03-18T18:17:41.366Z,5.33
2023-03-18T18:21:26.331Z,7.10
2023-03-18T18:25:15.752Z,7.33
2023-03-18T18:28:58.719Z,6.80
2023-03-18T18:32:41.832Z,6.13
2023-03-18T18:36:28.144Z,6.00
2023-03-18T18:40:13.570Z,5.23
2023-03-18T18:43:56.632Z,5.63
2023-03-18T18:47:39.506Z,5.47
2023-03-18T18:51:24.133Z,5.00
2023-03-18T18:55:09.400Z,6.13
2023-03-18T18:58:53.276Z,7.33
2023-03-18T19:02:37.857Z,5.57
2023-03-18T19:06:26.625Z,5.60
2023-03-18T19:10:18.246Z,5.73
2023-03-18T19:14:20.129Z,5.00
2023-03-18T19:18:04.801Z,5.60
2023-03-18T19:21:47.603Z,5.40
2023-03-18T19:25:35.290Z,5.27
2023-03-18T19:29:18.060Z,5.37
2023-03-18T19:33:02.279Z,6.07
2023-03-18T19:36:46.602Z,5.30
2023-03-18T19:40:31.747Z,6.00
2023-03-18T19:44:17.985Z,6.13
2023-03-18T19:48:00.609Z,7.37
2023-03-18T19:51:43.614Z,7.40
2023-03-18T19:55:27.203Z,8.37
2023-03-18T19:59:20.943Z,7.50
2023-03-18T20:03:04.582Z,7.30
2023-03-18T20:06:48.455Z,7.10
2023-03-18T20:10:31.320Z,7.53
2023-03-18T20:14:22.967Z,7.73
2023-03-18T20:18:07.388Z,7.53
2023-03-18T20:21:50.363Z,7.50
2023-03-18T20:25:36.510Z,8.00
2023-03-18T20:29:25.254Z,9.20
2023-03-18T20:33:08.557Z,10.03
2023-03-18T20:36:52.063Z,10.47
2023-03-18T20:40:34.836Z,7.87
2023-03-18T20:44:17.605Z,7.30
2023-03-18T20:48:01.631Z,7.37
2023-03-18T20:51:44.536Z,9.73
2023-03-18T20:55:30.325Z,9.27
2023-03-18T20:59:13.651Z,6.90
2023-03-18T21:02:57.613Z,6.60
2023-03-18T21:06:42.020Z,6.27
2023-03-18T21:10:26.444Z,5.97
2023-03-18T21:14:15.181Z,6.20
2023-03-18T21:17:58.277Z,7.03
2023-03-18T21:21:42.831Z,6.30
2023-03-18T21:25:27.340Z,6.63
2023-03-18T21:29:10.112Z,17.33
2023-03-18T21:32:52.782Z,15.43
2023-03-18T21:36:36.422Z,22.20
2023-03-18T21:40:21.852Z,11.03
2023-03-18T21:44:04.593Z,9.30
2023-03-18T21:47:47.237Z,8.03
2023-03-18T21:51:39.153Z,8.70
2023-03-18T21:55:24.055Z,9.23
2023-03-18T21:59:06.698Z,8.57
2023-03-18T22:02:49.889Z,8.30
2023-03-18T22:06:33.392Z,9.43
2023-03-18T22:10:17.477Z,9.47
2023-03-18T22:14:01.493Z,8.27
2023-03-18T22:17:44.160Z,8.87
2023-03-18T22:21:28.329Z,9.07
2023-03-18T22:25:17.460Z,16.13
2023-03-18T22:29:01.467Z,12.20
2023-03-18T22:32:45.686Z,11.10
2023-03-18T22:36:29.557Z,12.20
2023-03-18T22:40:16.985Z,11.20
2023-03-18T22:44:03.506Z,10.20
2023-03-18T22:47:46.218Z,10.50
2023-03-18T22:51:31.241Z,11.70
2023-03-18T22:55:19.838Z,11.50
2023-03-18T22:59:04.557Z,12.33
2023-03-18T23:02:47.294Z,12.50
2023-03-18T23:06:30.072Z,10.20
2023-03-18T23:10:13.988Z,11.87
2023-03-18T23:13:56.852Z,12.57
2023-03-18T23:17:41.151Z,13.13
2023-03-18T23:21:25.094Z,12.53
2023-03-18T23:25:09.100Z,12.57
2023-03-18T23:28:51.792Z,12.57
2023-03-18T23:32:35.407Z,14.30
2023-03-18T23:36:19.565Z,14.33
2023-03-18T23:40:02.323Z,13.93
2023-03-18T23:43:45.754Z,15.47
2023-03-18T23:47:28.506Z,14.77
2023-03-18T23:51:11.163Z,13.23
2023-03-18T23:54:55.516Z,11.40
2023-03-18T23:58:38.191Z,11.40
